Time;durP1;ratioP1;P1;durP2;ratioP2;P2;SDS_P1;SDS_P2;PMS_P1;PMS_P2;Temp;Humidity;BMP_temperature;BMP_pressure;BME280_temperature;BME280_humidity;BME280_pressure;Samples;Min_cycle;Max_cycle;Signal;HPM_P1;HPM_P2
2023/11/10 00:01:51;;;;;;;1.50;0.90;;;;;;;-0.81;82.20;95665.94;106744;1274;25349;-78
2023/11/10 00:04:20;;;;;;;1.60;0.80;;;;;;;-0.73;82.36;95663.38;106777;1274;22640;-78
2023/11/10 00:06:48;;;;;;;1.50;0.80;;;;;;;-0.67;82.24;95666.66;106736;1274;22555;-77
2023/11/10 00:09:18;;;;;;;2.60;1.10;;;;;;;-0.66;81.96;95659.77;106804;1274;24197;-77
2023/11/10 00:11:46;;;;;;;1.00;0.90;;;;;;;-0.76;81.46;95658.30;106774;1274;24260;-78
2023/11/10 00:14:15;;;;;;;1.30;0.70;;;;;;;-0.87;81.51;95655.09;106706;1274;25267;-77
2023/11/10 00:16:48;;;;;;;1.50;0.80;;;;;;;-0.91;81.72;95662.40;106715;1274;22519;-77
2023/11/10 00:19:16;;;;;;;4.40;1.50;;;;;;;-0.94;81.83;95658.36;106721;1274;24237;-78
2023/11/10 00:21:46;;;;;;;1.70;0.90;;;;;;;-1.01;82.17;95660.92;106823;1274;24228;-77
2023/11/10 00:24:15;;;;;;;2.00;0.90;;;;;;;-1.03;82.56;95658.63;106704;1274;24336;-77
2023/11/10 00:26:43;;;;;;;2.40;1.50;;;;;;;-1.02;82.51;95658.30;106732;1274;25431;-78
2023/11/10 00:29:12;;;;;;;1.30;0.90;;;;;;;-1.10;82.17;95666.05;106798;1274;25344;-77
2023/11/10 00:31:40;;;;;;;1.20;0.70;;;;;;;-1.15;82.67;95656.42;106667;1274;22521;-77
2023/11/10 00:34:09;;;;;;;2.00;0.60;;;;;;;-1.21;82.26;95668.52;106694;1274;23086;-77
2023/11/10 00:36:37;;;;;;;2.30;0.70;;;;;;;-1.22;82.59;95660.17;106684;1274;23814;-77
2023/11/10 00:39:06;;;;;;;1.40;0.50;;;;;;;-1.29;82.45;95659.13;106615;1274;22634;-77
2023/11/10 00:41:35;;;;;;;2.60;1.50;;;;;;;-1.37;82.25;95652.52;106694;1274;24275;-77
2023/11/10 00:44:03;;;;;;;0.90;0.80;;;;;;;-1.49;82.37;95659.41;106746;1274;25354;-77
2023/11/10 00:46:32;;;;;;;1.80;1.00;;;;;;;-1.54;82.50;95657.24;106675;1274;26562;-78
2023/11/10 00:49:00;;;;;;;0.70;0.60;;;;;;;-1.51;83.14;95647.46;106628;1274;22522;-77
2023/11/10 00:51:28;;;;;;;1.60;0.60;;;;;;;-1.55;82.92;95648.92;106746;1274;25057;-77
2023/11/10 00:53:57;;;;;;;2.50;0.80;;;;;;;-1.58;82.95;95649.86;106717;1274;22529;-77
2023/11/10 00:56:26;;;;;;;2.40;1.00;;;;;;;-1.57;83.27;95649.22;106745;1274;22787;-77
2023/11/10 00:58:54;;;;;;;3.80;1.10;;;;;;;-1.58;83.48;95646.74;106683;1274;24219;-77
2023/11/10 01:01:22;;;;;;;3.10;0.80;;;;;;;-1.62;82.98;95649.75;106643;1274;22527;-77
2023/11/10 01:03:50;;;;;;;3.80;1.20;;;;;;;-1.59;83.27;95643.46;106752;1274;22562;-77
2023/11/10 01:06:19;;;;;;;1.30;0.80;;;;;;;-1.58;83.24;95656.42;106685;1274;22519;-78
2023/11/10 01:08:47;;;;;;;3.50;1.00;;;;;;;-1.57;83.19;95649.37;106704;1274;24252;-77
2023/11/10 01:11:16;;;;;;;3.10;0.80;;;;;;;-1.60;83.30;95647.58;106772;1274;23136;-77
2023/11/10 01:13:44;;;;;;;2.70;1.00;;;;;;;-1.49;83.83;95640.61;106684;1274;25354;-77
2023/11/10 01:16:12;;;;;;;1.80;0.70;;;;;;;-1.46;82.99;95640.02;106692;1274;24823;-78
2023/11/10 01:18:40;;;;;;;1.10;0.70;;;;;;;-1.47;82.95;95636.89;106725;1274;22775;-77
2023/11/10 01:21:10;;;;;;;2.10;0.80;;;;;;;-1.45;83.40;95628.15;106678;1274;22459;-77
2023/11/10 01:23:38;;;;;;;0.60;0.50;;;;;;;-1.38;83.15;95625.23;106645;1265;22563;-78
2023/11/10 01:26:07;;;;;;;0.60;0.60;;;;;;;-1.38;82.87;95618.85;106777;1274;23011;-77
2023/11/10 01:28:35;;;;;;;1.60;0.70;;;;;;;-1.36;83.01;95616.84;106688;1274;22526;-77
2023/11/10 01:31:03;;;;;;;1.60;0.80;;;;;;;-1.28;83.22;95610.32;106788;1274;23914;-78
2023/11/10 01:33:31;;;;;;;0.50;0.50;;;;;;;-1.28;82.31;95616.18;106682;1274;22532;-77
2023/11/10 01:36:00;;;;;;;1.10;0.60;;;;;;;-1.28;82.68;95612.92;106660;1274;22579;-77
2023/11/10 01:38:28;;;;;;;1.10;0.70;;;;;;;-1.23;82.46;95608.55;106663;1274;25358;-77
2023/11/10 01:40:56;;;;;;;1.80;0.60;;;;;;;-1.33;81.73;95609.49;106858;1274;22530;-77
2023/11/10 01:43:24;;;;;;;1.50;0.70;;;;;;;-1.38;82.13;95610.05;106740;1274;22599;-77
2023/11/10 01:45:53;;;;;;;2.50;0.80;;;;;;;-1.35;82.56;95603.06;106802;1253;22531;-77
2023/11/10 01:48:21;;;;;;;0.80;0.80;;;;;;;-1.39;82.07;95610.71;106688;1274;25307;-77
2023/11/10 01:50:49;;;;;;;1.60;1.00;;;;;;;-1.40;82.39;95597.75;106731;1274;22522;-77
2023/11/10 01:53:17;;;;;;;1.30;0.80;;;;;;;-1.45;81.97;95597.44;106742;1274;22537;-77
2023/11/10 01:55:47;;;;;;;1.60;0.90;;;;;;;-1.48;82.32;95603.73;106747;1274;25500;-77
2023/11/10 01:58:17;;;;;;;1.30;0.60;;;;;;;-1.50;82.35;95602.98;106681;1275;22526;-77
2023/11/10 02:00:45;;;;;;;1.80;0.90;;;;;;;-1.61;81.99;95598.53;106844;1274;23886;-77
2023/11/10 02:03:14;;;;;;;1.80;0.80;;;;;;;-1.63;82.31;95597.95;106792;1274;25422;-77
2023/11/10 02:05:43;;;;;;;1.20;0.70;;;;;;;-1.67;82.63;95598.20;106823;1274;22541;-77
2023/11/10 02:08:11;;;;;;;2.70;1.40;;;;;;;-1.75;82.66;95590.05;106701;1274;22529;-77
2023/11/10 02:10:39;;;;;;;2.10;0.90;;;;;;;-1.81;82.65;95585.91;106731;1274;25355;-76
2023/11/10 02:13:08;;;;;;;2.60;0.90;;;;;;;-1.82;82.47;95590.20;106730;1274;25392;-77
2023/11/10 02:15:36;;;;;;;2.30;1.10;;;;;;;-1.82;82.71;95586.23;106803;1274;25248;-77
2023/11/10 02:18:05;;;;;;;1.40;0.80;;;;;;;-1.78;82.76;95581.69;106640;1274;22929;-77
2023/11/10 02:20:33;;;;;;;1.10;0.70;;;;;;;-1.78;82.70;95582.91;107006;1274;22530;-78
2023/11/10 02:23:01;;;;;;;2.00;0.70;;;;;;;-1.75;82.74;95580.40;107014;1274;22516;-78
2023/11/10 02:25:29;;;;;;;1.10;0.70;;;;;;;-1.78;82.64;95585.99;106889;1274;24505;-77
2023/11/10 02:27:58;;;;;;;2.20;1.30;;;;;;;-1.87;83.07;95588.85;106675;1275;24285;-78
2023/11/10 02:30:26;;;;;;;2.80;1.40;;;;;;;-1.90;83.32;95592.02;106660;1275;26767;-78
2023/11/10 02:32:54;;;;;;;1.10;0.60;;;;;;;-1.91;83.10;95587.86;106953;1275;22530;-78
2023/11/10 02:35:23;;;;;;;1.50;0.90;;;;;;;-1.92;82.63;95584.89;106676;1274;25412;-77
2023/11/10 02:37:51;;;;;;;1.10;0.70;;;;;;;-1.92;82.67;95584.39;106717;1274;23921;-78
2023/11/10 02:40:19;;;;;;;1.10;0.60;;;;;;;-1.88;82.76;95591.41;106648;1274;25369;-77
2023/11/10 02:42:47;;;;;;;1.90;0.90;;;;;;;-1.92;82.73;95589.40;106811;1274;22528;-78
2023/11/10 02:45:16;;;;;;;3.40;1.00;;;;;;;-1.98;83.00;95588.69;106828;1275;22526;-78
2023/11/10 02:47:44;;;;;;;1.70;0.80;;;;;;;-2.01;82.70;95586.20;106855;1275;24223;-78
2023/11/10 02:50:13;;;;;;;2.00;0.80;;;;;;;-1.98;83.22;95585.43;107064;1275;22783;-78
2023/11/10 02:52:52;;;;;;;1.10;0.80;;;;;;;-2.00;83.33;95581.74;106800;1274;24252;-78
2023/11/10 02:55:20;;;;;;;0.70;0.60;;;;;;;-1.98;83.35;95579.38;106684;1274;22527;-77
2023/11/10 02:57:48;;;;;;;1.10;0.40;;;;;;;-2.00;83.17;95572.61;106911;1274;22528;-78
2023/11/10 03:00:17;;;;;;;2.20;0.70;;;;;;;-2.02;83.36;95572.04;107039;1274;25358;-78
2023/11/10 03:02:45;;;;;;;2.00;0.90;;;;;;;-2.00;83.52;95568.96;106982;1274;22521;-77
2023/11/10 03:05:13;;;;;;;1.60;0.60;;;;;;;-2.00;83.12;95571.23;106891;1274;25543;-77
2023/11/10 03:07:41;;;;;;;1.00;0.60;;;;;;;-2.03;82.90;95571.33;106771;1274;22797;-78
2023/11/10 03:10:11;;;;;;;1.40;0.80;;;;;;;-1.92;83.49;95574.06;106749;1274;25409;-77
2023/11/10 03:12:40;;;;;;;1.60;0.60;;;;;;;-1.83;82.94;95571.89;106648;1274;22533;-78
2023/11/10 03:15:08;;;;;;;1.90;0.50;;;;;;;-1.89;82.38;95573.63;106759;1274;22517;-78
2023/11/10 03:17:37;;;;;;;2.20;1.00;;;;;;;-1.82;83.04;95571.74;106675;1274;23735;-77
2023/11/10 03:20:06;;;;;;;0.90;0.50;;;;;;;-1.79;82.36;95567.52;106741;1274;22528;-78
2023/11/10 03:22:35;;;;;;;0.70;0.50;;;;;;;-1.76;82.48;95564.33;106663;1274;24361;-78
2023/11/10 03:25:03;;;;;;;0.50;0.50;;;;;;;-1.77;82.54;95569.47;106731;1274;22519;-78
2023/11/10 03:27:32;;;;;;;3.00;0.40;;;;;;;-1.68;82.34;95568.16;106757;1274;24094;-77
2023/11/10 03:30:00;;;;;;;0.80;0.70;;;;;;;-1.70;81.78;95551.02;106717;1272;22525;-78
2023/11/10 03:32:32;;;;;;;2.20;1.30;;;;;;;-1.69;82.20;95549.34;106759;1274;22532;-78
2023/11/10 03:35:03;;;;;;;1.70;0.80;;;;;;;-1.69;81.47;95553.12;106793;1274;22546;-78
2023/11/10 03:37:31;;;;;;;1.00;0.70;;;;;;;-1.68;82.06;95554.02;106673;1274;22523;-78
2023/11/10 03:39:59;;;;;;;2.40;1.30;;;;;;;-1.69;81.32;95547.95;107061;1274;23104;-78
2023/11/10 03:42:28;;;;;;;1.20;0.70;;;;;;;-1.78;80.92;95548.77;106928;1274;25275;-77
2023/11/10 03:44:56;;;;;;;0.90;0.50;;;;;;;-1.86;80.99;95544.91;107119;1274;24310;-78
2023/11/10 03:47:24;;;;;;;1.40;0.70;;;;;;;-1.88;81.36;95547.80;107052;1274;25463;-78
2023/11/10 03:49:52;;;;;;;1.10;0.80;;;;;;;-1.93;81.17;95545.05;106841;1274;24241;-78
2023/11/10 03:52:21;;;;;;;0.50;0.50;;;;;;;-2.04;81.17;95542.69;107084;1272;25401;-77
2023/11/10 03:54:49;;;;;;;0.70;0.60;;;;;;;-2.05;81.51;95540.42;106713;1274;22549;-78
2023/11/10 03:57:17;;;;;;;0.60;0.50;;;;;;;-2.11;81.25;95539.38;106703;1274;23889;-78
2023/11/10 03:59:45;;;;;;;0.60;0.40;;;;;;;-2.23;81.30;95529.39;106794;1274;25451;-77
2023/11/10 04:02:14;;;;;;;1.20;0.60;;;;;;;-2.30;81.92;95529.88;106933;1274;22924;-77
2023/11/10 04:04:42;;;;;;;3.00;1.80;;;;;;;-2.33;82.03;95535.62;106835;1274;22534;-78
2023/11/10 04:07:10;;;;;;;2.80;1.20;;;;;;;-2.34;82.27;95532.48;106798;1274;26736;-77
2023/11/10 04:09:38;;;;;;;1.30;0.90;;;;;;;-2.37;82.44;95527.24;106786;1274;25438;-78
2023/11/10 04:12:07;;;;;;;0.90;0.70;;;;;;;-2.43;82.23;95526.73;106758;1274;22532;-77
2023/11/10 04:14:35;;;;;;;1.00;0.90;;;;;;;-2.41;82.22;95522.13;106795;1274;24223;-77
2023/11/10 04:17:06;;;;;;;1.60;0.90;;;;;;;-2.36;82.37;95516.94;106676;1274;25278;-77
2023/11/10 04:19:34;;;;;;;3.40;0.60;;;;;;;-2.34;82.28;95517.17;106711;1274;24373;-78
2023/11/10 04:22:02;;;;;;;1.40;0.60;;;;;;;-2.28;82.27;95518.38;107094;1274;22535;-78
2023/11/10 04:24:33;;;;;;;1.00;0.70;;;;;;;-2.26;82.08;95515.67;107028;1274;22540;-78
2023/11/10 04:27:01;;;;;;;1.10;0.50;;;;;;;-2.19;82.50;95513.63;107079;1274;22769;-78
2023/11/10 04:29:29;;;;;;;3.80;1.40;;;;;;;-2.15;82.36;95510.83;106935;1274;22587;-77
2023/11/10 04:31:57;;;;;;;0.90;0.40;;;;;;;-2.09;82.48;95511.01;107042;1274;24242;-78
2023/11/10 04:34:25;;;;;;;0.30;0.30;;;;;;;-2.10;82.16;95501.30;106927;1274;25472;-78
2023/11/10 04:36:54;;;;;;;0.60;0.40;;;;;;;-2.09;82.82;95503.05;107081;1274;25372;-76
2023/11/10 04:39:23;;;;;;;0.50;0.30;;;;;;;-2.06;82.54;95499.35;107047;1274;24407;-77
2023/11/10 04:41:54;;;;;;;0.60;0.50;;;;;;;-2.01;82.64;95497.25;107016;1274;25401;-76
2023/11/10 04:44:23;;;;;;;1.30;0.50;;;;;;;-1.94;82.73;95492.98;107053;1274;22649;-77
2023/11/10 04:46:51;;;;;;;0.90;0.40;;;;;;;-1.82;82.59;95493.98;107052;1274;22468;-77
2023/11/10 04:49:19;;;;;;;1.00;0.30;;;;;;;-1.79;82.30;95490.44;107139;1274;24240;-77
2023/11/10 04:51:48;;;;;;;1.90;0.50;;;;;;;-1.69;82.64;95488.63;106710;1274;25538;-77
2023/11/10 04:54:17;;;;;;;0.30;0.30;;;;;;;-1.65;82.42;95480.83;106762;1274;22759;-77
2023/11/10 04:56:45;;;;;;;1.10;0.60;;;;;;;-1.63;82.30;95478.44;106863;1274;24575;-76
2023/11/10 04:59:14;;;;;;;2.50;0.50;;;;;;;-1.62;82.22;95486.92;106680;1274;24376;-77
2023/11/10 05:01:43;;;;;;;1.40;0.80;;;;;;;-1.59;82.13;95486.67;106648;1274;22520;-77
2023/11/10 05:04:13;;;;;;;3.30;0.90;;;;;;;-1.58;81.71;95483.77;106604;1275;25447;-77
2023/11/10 05:06:42;;;;;;;1.60;0.80;;;;;;;-1.59;81.69;95483.57;106643;1274;24410;-77
2023/11/10 05:09:10;;;;;;;21.10;9.30;;;;;;;-1.63;81.72;95476.90;106789;1274;22527;-77
2023/11/10 05:11:38;;;;;;;49.30;21.80;;;;;;;-1.69;81.13;95473.64;107014;1274;22578;-77
2023/11/10 05:14:06;;;;;;;70.40;28.70;;;;;;;-1.81;80.83;95473.48;106647;1274;25538;-77
2023/11/10 05:16:34;;;;;;;60.10;27.20;;;;;;;-1.92;81.02;95473.54;106788;1274;25492;-77
2023/11/10 05:19:03;;;;;;;56.50;25.20;;;;;;;-2.03;81.42;95477.71;106693;1274;22534;-77
2023/11/10 05:21:31;;;;;;;40.30;18.80;;;;;;;-2.08;81.84;95483.29;106667;1274;25267;-77
2023/11/10 05:24:00;;;;;;;36.40;16.10;;;;;;;-2.10;82.72;95477.17;106726;1274;25300;-77
2023/11/10 05:26:30;;;;;;;42.90;16.80;;;;;;;-2.12;82.48;95473.49;106749;1274;22549;-77
2023/11/10 05:28:58;;;;;;;26.60;13.50;;;;;;;-2.16;82.60;95481.33;106686;1274;22528;-77
2023/11/10 05:31:26;;;;;;;17.80;10.60;;;;;;;-2.22;82.61;95487.72;106659;1274;22535;-77
2023/11/10 05:33:56;;;;;;;17.70;10.10;;;;;;;-2.23;82.87;95486.12;106746;1274;25293;-77
2023/11/10 05:36:25;;;;;;;42.00;22.00;;;;;;;-2.26;82.89;95480.52;106784;1275;24404;-77
2023/11/10 05:38:53;;;;;;;46.00;20.00;;;;;;;-2.27;83.11;95487.92;106739;1274;26721;-77
2023/11/10 05:41:21;;;;;;;45.50;19.40;;;;;;;-2.31;82.69;95493.84;106691;1274;22639;-76
2023/11/10 05:43:49;;;;;;;45.80;21.60;;;;;;;-2.34;82.49;95497.50;106685;1274;22550;-77
2023/11/10 05:46:17;;;;;;;47.90;24.30;;;;;;;-2.31;83.22;95494.86;107057;1274;25501;-77
2023/11/10 05:48:46;;;;;;;41.50;21.50;;;;;;;-2.30;83.43;95496.09;107074;1275;22529;-77
2023/11/10 05:51:14;;;;;;;15.60;9.00;;;;;;;-2.24;83.40;95495.60;107078;1275;24272;-77
2023/11/10 05:53:42;;;;;;;23.30;11.70;;;;;;;-2.14;83.94;95496.55;107036;1275;24271;-77
2023/11/10 05:56:11;;;;;;;32.80;16.90;;;;;;;-2.11;84.05;95499.91;107037;1274;22800;-76
2023/11/10 05:58:39;;;;;;;24.10;12.30;;;;;;;-2.05;83.93;95496.79;107071;1274;22556;-78
2023/11/10 06:01:07;;;;;;;29.40;15.00;;;;;;;-2.00;84.42;95492.10;106944;1275;22518;-79
2023/11/10 06:03:37;;;;;;;29.60;15.90;;;;;;;-1.95;84.11;95498.97;106885;1274;22553;-78
2023/11/10 06:06:05;;;;;;;22.70;11.50;;;;;;;-1.92;84.01;95496.80;107089;1274;24228;-79
2023/11/10 06:08:36;;;;;;;7.20;4.50;;;;;;;-1.86;83.96;95497.33;106982;1275;25568;-78
2023/11/10 06:11:04;;;;;;;4.50;2.20;;;;;;;-1.79;83.60;95495.64;107131;1274;22531;-78
2023/11/10 06:13:34;;;;;;;5.20;2.50;;;;;;;-1.67;83.45;95493.69;107100;1274;22510;-79
2023/11/10 06:16:06;;;;;;;4.00;2.40;;;;;;;-1.59;83.19;95492.55;107087;1275;24328;-78
2023/11/10 06:18:35;;;;;;;2.80;2.10;;;;;;;-1.52;83.10;95494.79;107170;1274;25344;-80
2023/11/10 06:21:04;;;;;;;6.80;3.80;;;;;;;-1.44;83.74;95489.99;107145;1274;25488;-78
2023/11/10 06:23:33;;;;;;;85.80;34.50;;;;;;;-1.36;83.28;95487.59;107061;1274;24224;-78
2023/11/10 06:26:01;;;;;;;81.40;34.50;;;;;;;-1.30;82.78;95485.52;106742;1273;22545;-79
2023/11/10 06:28:29;;;;;;;110.30;42.00;;;;;;;-1.18;82.62;95485.80;106781;1274;22531;-79
2023/11/10 06:30:57;;;;;;;17.60;7.90;;;;;;;-1.06;82.86;95482.63;106741;1275;24276;-78
2023/11/10 06:33:26;;;;;;;54.30;24.10;;;;;;;-0.88;82.85;95485.31;106737;1275;23878;-80
2023/11/10 06:35:54;;;;;;;83.20;35.50;;;;;;;-0.70;82.60;95486.77;107134;1274;23792;-78
2023/11/10 06:38:22;;;;;;;197.70;69.30;;;;;;;-0.59;81.69;95483.05;107180;1274;25491;-79
2023/11/10 06:40:50;;;;;;;144.50;55.70;;;;;;;-0.45;80.71;95478.34;107050;1274;22547;-78
2023/11/10 06:43:19;;;;;;;81.10;32.80;;;;;;;-0.37;80.95;95479.35;107040;1274;25425;-77
2023/11/10 06:45:50;;;;;;;95.90;38.60;;;;;;;-0.27;81.38;95473.36;107025;1274;24345;-79
2023/11/10 06:48:19;;;;;;;94.30;38.50;;;;;;;-0.09;81.42;95472.52;107082;1275;25304;-79
2023/11/10 06:50:47;;;;;;;99.80;42.30;;;;;;;0.11;81.17;95467.92;106899;1274;24284;-78
2023/11/10 06:53:15;;;;;;;38.80;19.20;;;;;;;0.33;81.16;95467.98;106851;1274;25255;-77
2023/11/10 06:55:43;;;;;;;32.00;17.10;;;;;;;0.42;80.06;95469.35;106938;1274;22639;-81
2023/11/10 06:58:11;;;;;;;31.90;16.10;;;;;;;0.38;79.45;95467.39;106762;1274;22575;-79
2023/11/10 07:00:40;;;;;;;27.60;15.60;;;;;;;0.40;79.96;95462.39;106849;1275;22542;-79
2023/11/10 07:03:12;;;;;;;28.40;16.60;;;;;;;0.47;79.96;95460.25;106850;1263;22521;-80
2023/11/10 07:05:41;;;;;;;37.80;18.10;;;;;;;0.50;80.17;95455.30;107137;1274;24269;-77
2023/11/10 07:08:11;;;;;;;40.70;18.60;;;;;;;0.58;80.61;95452.84;106825;1274;22573;-78
2023/11/10 07:10:47;;;;;;;58.30;24.60;;;;;;;0.64;80.64;95442.91;106646;1274;22530;-79
2023/11/10 07:13:16;;;;;;;67.70;26.50;;;;;;;0.68;80.13;95428.61;106916;1275;22537;-79
2023/11/10 07:15:45;;;;;;;65.00;27.90;;;;;;;0.68;80.53;95431.02;107078;1274;22456;-78
2023/11/10 07:18:14;;;;;;;87.10;39.10;;;;;;;0.67;80.41;95433.77;107130;1274;22470;-80
2023/11/10 07:20:44;;;;;;;71.60;33.20;;;;;;;0.70;79.99;95430.90;107029;1274;24241;-80
2023/11/10 07:23:13;;;;;;;86.40;36.60;;;;;;;0.76;80.14;95428.21;107073;1264;22627;-81
2023/11/10 07:25:42;;;;;;;73.80;33.20;;;;;;;0.82;80.21;95434.38;107072;1274;24337;-80
2023/11/10 07:28:10;;;;;;;38.00;16.60;;;;;;;0.81;80.20;95435.91;106872;1274;22573;-81
2023/11/10 07:30:40;;;;;;;40.00;18.70;;;;;;;0.85;80.18;95434.59;106760;1274;22522;-80
2023/11/10 07:33:08;;;;;;;31.80;15.20;;;;;;;0.91;79.87;95432.96;106711;1275;25498;-81
2023/11/10 07:35:37;;;;;;;43.10;17.70;;;;;;;0.93;79.46;95427.09;106722;1274;24317;-80
2023/11/10 07:38:06;;;;;;;37.90;20.00;;;;;;;0.98;79.58;95419.38;107120;1275;24395;-80
2023/11/10 07:40:34;;;;;;;23.20;14.70;;;;;;;1.00;79.44;95414.58;107106;1274;22639;-78
2023/11/10 07:43:03;;;;;;;24.60;13.70;;;;;;;1.03;79.52;95407.35;107007;1274;24231;-81
2023/11/10 07:45:34;;;;;;;38.90;16.60;;;;;;;1.11;79.60;95406.41;106627;1274;22649;-78
2023/11/10 07:48:05;;;;;;;32.90;16.60;;;;;;;1.19;79.79;95403.79;106729;1274;22548;-78
2023/11/10 07:50:33;;;;;;;37.60;18.20;;;;;;;1.32;79.51;95402.73;106883;1274;25603;-79
2023/11/10 07:53:01;;;;;;;30.60;15.90;;;;;;;1.44;78.98;95395.09;106882;1274;24075;-78
2023/11/10 07:55:29;;;;;;;27.30;14.10;;;;;;;1.59;78.21;95395.98;106852;1274;25492;-80
2023/11/10 07:57:59;;;;;;;23.20;13.00;;;;;;;1.76;78.74;95395.34;106811;1274;23007;-79
2023/11/10 08:00:28;;;;;;;25.00;14.20;;;;;;;1.91;78.91;95387.52;106853;1274;24826;-80
2023/11/10 08:02:56;;;;;;;22.20;14.10;;;;;;;2.04;78.48;95388.19;106729;1274;22982;-81
2023/11/10 08:05:24;;;;;;;18.20;11.60;;;;;;;2.22;77.97;95381.08;106999;1274;23795;-79
2023/11/10 08:07:55;;;;;;;15.00;10.40;;;;;;;2.46;77.92;95373.33;106916;1274;22529;-81
2023/11/10 08:10:23;;;;;;;26.20;14.30;;;;;;;2.68;76.39;95366.05;106850;1274;25383;-83
2023/11/10 08:13:59;;;;;;;17.00;9.90;;;;;;;2.94;75.57;95354.27;103651;1304;544931;-80
2023/11/10 08:16:27;;;;;;;25.50;14.90;;;;;;;3.02;73.83;95345.29;106417;1287;22686;-80
2023/11/10 08:18:55;;;;;;;29.20;15.40;;;;;;;3.11;73.99;95343.95;106358;1287;25496;-80
2023/11/10 08:21:25;;;;;;;22.40;11.70;;;;;;;3.17;73.73;95339.45;106258;1287;24367;-78
2023/11/10 08:23:53;;;;;;;20.80;11.90;;;;;;;3.24;74.36;95339.85;106269;1287;22548;-80
2023/11/10 08:26:22;;;;;;;29.70;15.60;;;;;;;3.28;74.04;95340.05;105829;1285;251983;-79
2023/11/10 08:28:50;;;;;;;47.60;21.20;;;;;;;3.29;72.47;95340.23;106457;1284;25418;-81
2023/11/10 08:31:18;;;;;;;53.90;25.00;;;;;;;3.28;72.50;95338.65;107033;1273;22528;-81
2023/11/10 08:33:46;;;;;;;32.30;16.50;;;;;;;3.28;72.84;95337.96;107158;1273;25358;-81
2023/11/10 08:36:18;;;;;;;21.00;11.30;;;;;;;3.25;72.81;95338.46;107278;1273;25120;-81
2023/11/10 08:38:46;;;;;;;11.50;6.90;;;;;;;3.19;73.19;95343.48;107138;1273;25304;-81
2023/11/10 08:41:14;;;;;;;6.80;4.20;;;;;;;3.17;74.13;95348.33;106994;1273;25304;-78
2023/11/10 08:43:43;;;;;;;9.30;4.40;;;;;;;3.17;74.67;95349.71;106963;1273;22644;-81
2023/11/10 08:46:11;;;;;;;8.10;4.60;;;;;;;3.17;75.31;95354.58;106760;1273;24387;-80
2023/11/10 08:48:39;;;;;;;8.40;6.00;;;;;;;3.14;75.85;95352.30;107202;1274;25426;-78
2023/11/10 08:51:08;;;;;;;23.40;11.90;;;;;;;3.10;75.48;95354.19;106991;1274;22520;-78
2023/11/10 08:53:37;;;;;;;23.60;17.00;;;;;;;3.08;75.62;95348.97;107044;1273;22520;-78
2023/11/10 08:56:06;;;;;;;13.30;7.30;;;;;;;3.06;75.89;95348.42;107379;1273;24234;-80
2023/11/10 08:58:34;;;;;;;8.00;5.60;;;;;;;2.99;76.11;95345.44;107049;1273;25581;-77
2023/11/10 09:01:02;;;;;;;9.10;6.30;;;;;;;2.93;76.84;95345.39;107103;1273;23881;-81
2023/11/10 09:03:30;;;;;;;12.70;7.80;;;;;;;2.91;77.04;95352.15;107176;1273;22542;-80
2023/11/10 09:05:59;;;;;;;28.20;14.10;;;;;;;2.87;76.97;95353.17;107223;1273;22535;-81
2023/11/10 09:08:27;;;;;;;31.30;16.30;;;;;;;2.84;77.31;95343.77;107127;1273;25331;-81
2023/11/10 09:10:56;;;;;;;23.90;12.70;;;;;;;2.77;77.93;95348.06;106904;1273;22669;-79
2023/11/10 09:13:24;;;;;;;29.20;14.50;;;;;;;2.75;77.68;95341.98;107129;1273;22531;-79
2023/11/10 09:15:52;;;;;;;41.20;19.10;;;;;;;2.73;77.92;95338.66;107065;1273;22534;-77
2023/11/10 09:18:29;;;;;;;40.60;18.50;;;;;;;2.73;78.39;95329.27;107024;1273;25313;-77
2023/11/10 09:20:57;;;;;;;43.90;20.90;;;;;;;2.72;78.41;95327.55;106903;1273;25246;-79
2023/11/10 09:23:28;;;;;;;35.70;17.60;;;;;;;2.77;78.40;95326.52;106991;1273;23027;-79
2023/11/10 09:25:57;;;;;;;44.00;19.00;;;;;;;2.77;78.10;95321.32;106871;1273;26687;-80
2023/11/10 09:28:25;;;;;;;43.40;20.30;;;;;;;2.83;77.97;95315.10;107129;1273;22523;-79
2023/11/10 09:30:53;;;;;;;42.10;19.80;;;;;;;2.91;78.13;95310.12;107080;1273;24234;-80
2023/11/10 09:33:22;;;;;;;31.80;17.30;;;;;;;2.98;78.06;95304.60;107111;1273;25268;-81
2023/11/10 09:35:50;;;;;;;19.50;11.40;;;;;;;3.05;77.60;95304.11;107015;1273;22625;-78
2023/11/10 09:38:18;;;;;;;23.80;12.20;;;;;;;3.09;77.81;95303.44;106787;1260;24502;-80
2023/11/10 09:40:47;;;;;;;22.80;12.20;;;;;;;3.16;77.76;95301.73;107036;1273;25294;-79
2023/11/10 09:43:15;;;;;;;17.50;9.60;;;;;;;3.27;77.93;95294.15;107134;1273;25365;-81
2023/11/10 09:45:50;;;;;;;12.70;7.30;;;;;;;3.34;77.11;95291.40;107063;1273;22544;-82
2023/11/10 09:48:19;;;;;;;10.10;6.40;;;;;;;3.42;77.11;95284.83;107101;1260;25534;-81
2023/11/10 09:50:50;;;;;;;12.10;6.70;;;;;;;3.50;77.05;95280.86;107067;1273;25248;-80
2023/11/10 09:53:18;;;;;;;23.50;12.20;;;;;;;3.54;76.83;95277.05;106969;1273;22815;-79
2023/11/10 09:55:47;;;;;;;22.90;15.20;;;;;;;3.61;76.77;95268.89;106970;1273;22534;-77
2023/11/10 09:58:19;;;;;;;15.40;10.20;;;;;;;3.66;76.68;95263.52;107159;1273;23913;-79
2023/11/10 10:00:48;;;;;;;13.90;9.40;;;;;;;3.71;76.03;95263.36;107025;1273;22614;-81
2023/11/10 10:03:17;;;;;;;16.20;12.00;;;;;;;3.76;76.47;95257.10;107003;1273;22532;-80
2023/11/10 10:05:46;;;;;;;24.40;13.60;;;;;;;3.81;76.60;95249.98;106933;1273;24906;-82
2023/11/10 10:08:19;;;;;;;14.30;8.60;;;;;;;3.86;76.34;95246.52;106977;1273;22636;-81
2023/11/10 10:10:52;;;;;;;11.50;8.30;;;;;;;3.88;76.02;95241.64;107019;1273;22516;-81
2023/11/10 10:13:20;;;;;;;19.50;9.30;;;;;;;3.91;75.97;95240.09;106847;1273;22636;-81
2023/11/10 10:15:48;;;;;;;19.40;14.20;;;;;;;3.90;76.12;95242.52;106863;1273;22523;-81
2023/11/10 10:18:22;;;;;;;13.30;7.60;;;;;;;3.89;76.01;95235.90;107046;1273;25368;-80
2023/11/10 10:20:58;;;;;;;11.20;8.60;;;;;;;3.86;76.36;95235.36;107031;1273;22535;-80
2023/11/10 10:23:27;;;;;;;9.00;5.90;;;;;;;3.85;76.47;95232.41;108627;1273;22533;-79
2023/11/10 10:25:58;;;;;;;8.10;5.20;;;;;;;3.87;76.73;95222.15;106939;1273;22527;-80
2023/11/10 10:28:27;;;;;;;11.20;5.90;;;;;;;3.90;76.82;95220.07;106934;1273;24229;-81
2023/11/10 10:30:56;;;;;;;18.30;5.90;;;;;;;3.95;76.83;95210.33;107060;1273;25373;-82
2023/11/10 10:33:25;;;;;;;15.30;5.60;;;;;;;3.99;76.97;95204.93;107141;1273;25528;-81
2023/11/10 10:35:54;;;;;;;15.30;5.50;;;;;;;4.01;76.77;95201.11;106864;1273;25731;-82
2023/11/10 10:38:24;;;;;;;15.20;7.90;;;;;;;4.00;76.14;95196.23;106855;1273;24528;-82
2023/11/10 10:40:57;;;;;;;15.00;9.10;;;;;;;3.92;75.43;95198.31;107210;1273;25520;-82
2023/11/10 10:43:28;;;;;;;17.70;7.90;;;;;;;3.87;75.59;95195.70;107081;1273;25123;-81
2023/11/10 10:46:03;;;;;;;17.50;9.70;;;;;;;3.89;76.02;95189.45;107099;1273;24407;-81
2023/11/10 10:48:31;;;;;;;18.10;8.70;;;;;;;3.94;75.92;95185.27;107144;1273;24251;-81
2023/11/10 10:51:01;;;;;;;11.50;6.20;;;;;;;4.00;75.66;95189.27;107108;1273;22527;-82
2023/11/10 10:53:30;;;;;;;9.60;5.90;;;;;;;4.04;75.59;95183.19;107218;1273;22534;-81
2023/11/10 10:56:01;;;;;;;19.50;7.60;;;;;;;4.10;75.07;95176.56;107028;1273;23874;-82
2023/11/10 10:58:32;;;;;;;17.20;7.30;;;;;;;4.13;74.93;95174.65;107073;1273;22809;-81
2023/11/10 11:01:03;;;;;;;18.30;7.00;;;;;;;4.17;75.12;95175.52;106999;1273;25243;-82
2023/11/10 11:03:52;;;;;;;16.20;6.10;;;;;;;4.23;75.46;95172.91;106863;1273;22527;-82
2023/11/10 11:06:27;;;;;;;18.30;8.00;;;;;;;4.29;74.97;95169.23;106799;1273;25261;-82
2023/11/10 11:09:56;;;;;;;11.90;5.40;;;;;;;4.39;75.32;95157.21;107037;1273;24305;-82
2023/11/10 11:12:44;;;;;;;17.10;6.90;;;;;;;4.42;75.27;95152.85;106514;1273;26529;-82
2023/11/10 11:15:23;;;;;;;17.90;5.60;;;;;;;4.45;75.19;95142.58;106873;1273;22635;-82
2023/11/10 11:18:03;;;;;;;14.10;8.30;;;;;;;4.47;74.82;95131.42;106868;1273;22537;-81
2023/11/10 11:20:34;;;;;;;16.80;8.00;;;;;;;4.49;75.01;95129.32;106756;1250;24271;-82
2023/11/10 11:23:05;;;;;;;18.00;10.50;;;;;;;4.51;74.95;95132.27;106954;1273;22785;-82
2023/11/10 11:25:33;;;;;;;15.00;7.20;;;;;;;4.49;74.79;95138.04;106780;1273;22551;-81
2023/11/10 11:28:02;;;;;;;21.90;11.00;;;;;;;4.47;74.56;95140.13;106816;1273;24389;-82
2023/11/10 11:30:36;;;;;;;18.70;11.50;;;;;;;4.46;74.51;95148.84;106863;1273;24218;-82
2023/11/10 11:33:07;;;;;;;16.50;9.20;;;;;;;4.48;74.44;95150.57;106837;1273;22555;-82